Garuhape, Argentina
Current Conditions -  °F | °C
As of 5:00 PM on Wednesday 28 Jan 2015 (Local Time) from SARP Reporting Station
Scattered Clouds Scattered Clouds  
Wind Chill: 31°   Ceiling: Unl
Heat Index: 35°   Visibility: 6mi
Dew Point: 23°   Wind: 10mph
Humidity: 62%   Direction: 360°N
Pressure: 29.74"   Gusts: NA
Location:  26.86°S, 55.02°W
Report Text: SARP 282000Z 36009KT 9999 SCT035 FEW040TCU SCT060 31/23 Q1007
Loading
Personal Weather Stations






























Interactive Weather Map New forecast layout! Learn more

10-Day Weather Forecast

Advertisements
Track Severe Weather on mobile